Time;durP1;ratioP1;P1;durP2;ratioP2;P2;SDS_P1;SDS_P2;PMS_P1;PMS_P2;Temp;Humidity;BMP_temperature;BMP_pressure;BME280_temperature;BME280_humidity;BME280_pressure;Samples;Min_cycle;Max_cycle;Signal;HPM_P1;HPM_P2
2021/06/15 00:07:32;;;;;;;15.75;6.18;;;;;;;15.34;93.87;100654.52;714414;1203;114516;-74
2021/06/15 00:22:34;;;;;;;11.70;6.63;;;;;;;15.11;94.02;100657.70;714043;1179;113969;-76
2021/06/15 00:37:36;;;;;;;10.53;6.57;;;;;;;15.02;95.22;100642.79;713802;1201;115350;-74
2021/06/15 00:52:38;;;;;;;10.90;7.30;;;;;;;14.91;95.81;100640.39;714272;1202;115133;-76
2021/06/15 01:07:49;;;;;;;14.28;8.00;;;;;;;14.78;98.17;100639.00;713880;1206;115569;-75
2021/06/15 01:23:26;;;;;;;15.75;8.35;;;;;;;14.61;98.19;100627.45;713595;1203;115672;-75
2021/06/15 01:38:37;;;;;;;12.75;7.33;;;;;;;14.38;98.14;100624.45;713566;1178;114105;-74
2021/06/15 01:53:50;;;;;;;10.70;7.07;;;;;;;14.14;98.77;100619.78;713584;1203;115204;-75
2021/06/15 02:08:55;;;;;;;12.90;7.70;;;;;;;14.08;100.00;100601.91;713386;1205;114945;-74
2021/06/15 02:24:00;;;;;;;14.30;8.08;;;;;;;13.93;100.00;100609.52;713594;1203;114670;-74
2021/06/15 02:39:07;;;;;;;15.35;8.25;;;;;;;14.12;100.00;100616.45;713666;1202;115273;-76
2021/06/15 02:54:27;;;;;;;15.35;7.95;;;;;;;14.27;100.00;100622.88;713743;1177;114147;-75
2021/06/15 03:09:29;;;;;;;17.75;8.55;;;;;;;14.23;100.00;100639.17;713609;1205;115847;-76
2021/06/15 03:24:35;;;;;;;11.90;7.57;;;;;;;14.44;100.00;100633.59;713783;1203;115450;-75
2021/06/15 03:39:40;;;;;;;21.18;9.50;;;;;;;14.94;100.00;100621.61;713647;1203;114964;-75
2021/06/15 03:54:44;;;;;;;18.83;9.93;;;;;;;15.58;100.00;100629.19;713665;1202;115134;-75
2021/06/15 04:09:48;;;;;;;17.65;10.00;;;;;;;16.27;98.91;100619.29;713711;1202;114349;-76
2021/06/15 04:24:53;;;;;;;22.05;10.48;;;;;;;16.55;97.89;100629.55;713738;1200;115217;-76
2021/06/15 04:40:30;;;;;;;20.03;9.63;;;;;;;17.12;96.82;100631.31;713757;1200;114598;-74
2021/06/15 04:55:35;;;;;;;24.40;9.00;;;;;;;18.05;95.78;100628.92;713566;1201;114850;-75
2021/06/15 05:10:39;;;;;;;18.55;9.38;;;;;;;18.36;92.45;100627.24;715851;1167;115331;-74
2021/06/15 05:25:42;;;;;;;16.27;9.00;;;;;;;18.80;92.07;100634.48;713552;1202;114338;-74
2021/06/15 05:40:45;;;;;;;18.93;9.38;;;;;;;19.19;90.00;100632.61;713602;1202;115244;-74
2021/06/15 05:55:49;;;;;;;10.35;7.08;;;;;;;19.71;87.75;100625.50;713655;1202;115251;-72
2021/06/15 06:10:52;;;;;;;16.97;7.60;;;;;;;20.06;85.96;100639.00;713667;1201;114471;-75
2021/06/15 06:25:54;;;;;;;13.10;7.10;;;;;;;20.49;83.41;100636.33;714058;1202;114785;-73
2021/06/15 06:40:57;;;;;;;15.50;7.48;;;;;;;21.26;79.64;100636.47;713836;1202;115288;-76
2021/06/15 06:55:59;;;;;;;13.90;6.90;;;;;;;21.35;76.00;100639.81;713958;1202;114030;-77
2021/06/15 07:27:42;;;;;;;11.70;6.10;;;;;;;22.57;70.88;100626.60;708820;1209;115020;-76
2021/06/15 07:42:53;;;;;;;12.17;6.90;;;;;;;22.72;70.63;100621.84;711701;1206;114512;-76
2021/06/15 07:58:00;;;;;;;10.35;5.50;;;;;;;23.60;69.83;100623.27;718236;1167;115304;-85
2021/06/15 08:13:02;;;;;;;10.13;5.38;;;;;;;24.45;68.42;100623.17;715020;1177;113963;-79
2021/06/15 08:28:08;;;;;;;10.65;6.00;;;;;;;25.37;65.91;100609.88;715830;1205;114012;-80
2021/06/15 08:43:10;;;;;;;10.25;5.28;;;;;;;25.30;65.59;100625.23;715965;1179;113859;-80
2021/06/15 08:58:25;;;;;;;10.83;5.60;;;;;;;25.28;64.85;100605.84;715774;1200;114843;-79
2021/06/15 09:13:36;;;;;;;8.53;5.35;;;;;;;25.38;65.27;100600.79;715393;1202;115105;-80
2021/06/15 09:28:50;;;;;;;9.87;5.57;;;;;;;25.53;63.57;100600.38;714003;1202;114184;-77
2021/06/15 09:44:16;;;;;;;8.50;5.57;;;;;;;25.68;64.00;100612.59;714122;1184;113668;-79
2021/06/15 09:59:18;;;;;;;9.63;5.63;;;;;;;26.56;62.96;100597.59;714754;1200;114428;-77
2021/06/15 10:14:25;;;;;;;7.43;4.93;;;;;;;27.51;60.71;100594.77;714360;1201;115526;-75
2021/06/15 10:29:28;;;;;;;9.43;4.98;;;;;;;27.38;60.29;100589.66;713710;1200;114103;-80
2021/06/15 10:44:30;;;;;;;11.55;5.03;;;;;;;27.76;58.87;100590.91;713638;1205;114758;-77
2021/06/15 11:00:01;;;;;;;6.30;4.33;;;;;;;29.04;58.01;100583.95;713820;1206;114634;-86
2021/06/15 11:15:23;;;;;;;11.80;5.18;;;;;;;28.81;57.08;100570.70;714081;1202;114720;-79
2021/06/15 11:30:27;;;;;;;9.38;6.40;;;;;;;28.37;57.39;100568.73;714060;1202;114860;-77
2021/06/15 11:45:36;;;;;;;10.13;4.27;;;;;;;28.04;59.49;100570.38;714777;1205;114580;-77
2021/06/15 12:00:42;;;;;;;10.48;5.08;;;;;;;27.65;59.26;100538.72;714165;1202;115468;-78
2021/06/15 12:15:54;;;;;;;8.50;4.73;;;;;;;27.29;59.04;100547.98;714732;1202;115468;-80
2021/06/15 12:31:13;;;;;;;13.73;5.10;;;;;;;27.18;60.04;100530.83;714372;1203;114847;-79
2021/06/15 12:46:20;;;;;;;5.68;3.33;;;;;;;28.20;59.79;100530.98;714221;1201;114443;-76
2021/06/15 13:01:26;;;;;;;6.90;3.93;;;;;;;28.66;59.13;100531.66;714039;1205;114242;-74
2021/06/15 13:16:37;;;;;;;9.05;4.13;;;;;;;29.36;58.07;100521.16;714026;1203;114260;-82
2021/06/15 13:31:40;;;;;;;9.95;4.45;;;;;;;29.69;57.60;100518.47;713572;1191;114183;-80
2021/06/15 13:46:42;;;;;;;9.25;5.10;;;;;;;30.18;57.89;100514.80;720752;1200;113580;-80
2021/06/15 14:01:44;;;;;;;6.33;4.03;;;;;;;30.60;59.52;100515.88;715174;1202;114959;-82
2021/06/15 14:16:47;;;;;;;6.77;4.90;;;;;;;29.88;59.93;100514.33;714420;1202;114055;-80
2021/06/15 14:31:49;;;;;;;8.98;5.45;;;;;;;28.64;62.54;100517.58;714987;1201;114371;-82
2021/06/15 14:46:51;;;;;;;10.73;6.28;;;;;;;27.56;64.19;100529.41;714006;1200;114296;-81
2021/06/15 15:01:54;;;;;;;12.67;6.07;;;;;;;27.40;67.43;100521.03;714187;1202;114327;-81
2021/06/15 15:16:56;;;;;;;8.70;6.00;;;;;;;28.28;66.66;100510.88;713796;1202;114686;-76
2021/06/15 15:31:59;;;;;;;10.40;6.15;;;;;;;27.72;67.29;100509.73;713698;1203;114748;-75
2021/06/15 15:47:02;;;;;;;10.60;5.25;;;;;;;27.58;68.29;100513.80;714216;1203;114469;-80
2021/06/15 16:02:04;;;;;;;9.05;5.38;;;;;;;26.98;68.50;100510.52;714158;1202;113989;-76
2021/06/15 16:17:07;;;;;;;8.03;5.43;;;;;;;27.12;68.53;100515.63;714368;1202;114767;-82
2021/06/15 16:32:14;;;;;;;9.37;6.63;;;;;;;27.32;72.52;100540.25;714290;1205;115061;-81
2021/06/15 16:47:18;;;;;;;12.75;9.13;;;;;;;25.96;75.61;100535.91;715557;1203;113840;-80
2021/06/15 17:02:20;;;;;;;15.65;9.73;;;;;;;25.36;79.05;100546.48;714821;1202;114812;-87
2021/06/15 17:17:23;;;;;;;14.60;8.88;;;;;;;24.62;82.07;100549.16;715616;1202;114840;-86
2021/06/15 17:32:25;;;;;;;9.65;6.45;;;;;;;24.14;83.69;100563.20;715929;1200;115145;-87
2021/06/15 17:47:27;;;;;;;9.03;5.45;;;;;;;23.46;85.24;100576.17;715961;1205;114673;-85
2021/06/15 18:02:30;;;;;;;22.80;8.17;;;;;;;22.56;85.45;100595.55;715794;1203;113713;-84
2021/06/15 18:17:32;;;;;;;12.77;6.93;;;;;;;21.85;86.92;100586.22;716384;1200;113968;-84
2021/06/15 18:32:35;;;;;;;12.13;6.83;;;;;;;21.64;88.50;100588.01;716987;1202;114519;-83
2021/06/15 18:47:38;;;;;;;13.75;6.25;;;;;;;21.23;89.92;100596.86;716594;1202;115140;-84
2021/06/15 19:02:41;;;;;;;21.00;11.95;;;;;;;20.27;92.97;100625.70;717164;1202;114262;-84
2021/06/15 19:17:44;;;;;;;16.80;7.80;;;;;;;19.38;91.69;100647.20;715720;1177;114187;-84
2021/06/15 19:32:46;;;;;;;22.98;9.50;;;;;;;18.64;89.45;100670.00;715680;1202;115733;-86
2021/06/15 19:47:49;;;;;;;19.28;8.23;;;;;;;18.28;85.96;100674.08;715498;1205;113917;-83
2021/06/15 20:02:53;;;;;;;12.75;6.05;;;;;;;17.71;83.67;100677.02;715610;1203;114888;-84
2021/06/15 20:17:55;;;;;;;8.53;4.45;;;;;;;16.98;82.18;100682.36;715818;1203;113922;-85
2021/06/15 20:32:58;;;;;;;19.85;6.10;;;;;;;16.78;81.61;100701.21;714327;1206;114001;-84
2021/06/15 20:48:00;;;;;;;14.53;5.43;;;;;;;16.71;80.65;100716.13;715657;1203;114360;-84
2021/06/15 21:03:03;;;;;;;13.65;4.08;;;;;;;16.55;79.33;100737.28;715834;1202;115599;-83
2021/06/15 21:18:05;;;;;;;9.85;3.85;;;;;;;16.47;78.54;100757.47;715681;1205;113875;-82
2021/06/15 21:33:08;;;;;;;7.23;2.97;;;;;;;16.32;78.75;100756.44;715749;1177;113863;-82
2021/06/15 21:48:10;;;;;;;7.95;3.58;;;;;;;16.02;79.04;100761.32;715504;1201;114271;-82
2021/06/15 22:03:12;;;;;;;8.90;3.58;;;;;;;15.81;80.31;100774.95;715463;1200;113461;-83
2021/06/15 22:18:15;;;;;;;14.08;5.15;;;;;;;15.26;82.08;100761.02;715688;1206;113702;-82
2021/06/15 22:33:18;;;;;;;9.70;2.80;;;;;;;14.85;84.44;100750.13;715154;1202;114023;-82
2021/06/15 22:48:20;;;;;;;13.55;5.80;;;;;;;14.78;86.27;100763.12;716965;1200;114636;-83
2021/06/15 23:03:22;;;;;;;8.00;3.70;;;;;;;14.70;87.33;100767.48;715558;1202;113996;-81
2021/06/15 23:18:25;;;;;;;10.13;3.90;;;;;;;14.43;88.78;100775.27;715886;1202;114771;-80
2021/06/15 23:33:27;;;;;;;7.33;3.93;;;;;;;14.07;90.28;100771.73;714915;1202;114720;-82
2021/06/15 23:48:29;;;;;;;9.88;5.13;;;;;;;13.87;90.48;100773.60;714984;1178;114311;-82
